หน้าหลัก
METAR-TAF:

METAR-TAF

ท่าอากาศยาน :

Dalhart Municipal Airport

Dalhart, เทกซัส, สหรัฐอเมริกา

ละติจูด: 36-01-24N, ลองจิจูด: 102-32-50W, ความสูง: 1216 ม.

การสังเกตสภาพอากาศปัจจุบัน

รายงานได้ทำขึ้นเมื่อ 1 ชั่วโมงและ 8 นาทีที่แล้ว ณ เวลา 13:53 UTC
ลม 17 นอตจากใต้/ตะวันตกเฉียงใต้
อุณหภูมิ 22°C
ความชื้น 73%
ความกดอากาศ 1019 hPa
ทัศนวิสัย: 16.1 กม.
ท้องฟ้าแจ่มใส

METAR: KDHT 121353Z AUTO 21017KT 10SM CLR 22/17 A3009 RMK AO2 SLP132 T02220167

เวลา: 10:01 (15:01 UTC)

การพยากรณ์

รายงานได้ทำขึ้นเมื่อ 3 ชั่วโมงและ 41 นาทีที่แล้ว ณ เวลา 11:20 UTC
การพยากรณ์มีผลตั้งแต่วันที่ 12 ณ เวลา 12 UTC จนถึงวันที่ 13 ณ เวลา 12 UTC
ลม 7 นอตจากใต้
ทัศนวิสัย: 10 กม.
มีเมฆเป็นส่วนมากเว้นเป็นระยะที่ความสูง 25000 ฟุต
จาก 12 ณ เวลา 1500 UTC
ลม 13 นอตจากใต้/ตะวันตกเฉียงใต้โดยมีลมกระโชกได้ถึง23 นอต
ทัศนวิสัย: 10 กม.
มีเมฆน้อยที่ความสูง 25000 ฟุต
จาก 12 ณ เวลา 2200 UTC
ลม 10 นอตจากใต้/ตะวันออกเฉียงใต้
ทัศนวิสัย: 10 กม.
มีเมฆกระจายเป็นบางส่วนที่ความสูง 25000 ฟุต

TAF: KDHT 121120Z 1212/1312 18007KT P6SM BKN250 FM121500 21013G23KT P6SM FEW250 FM122200 16010KT P6SM SCT250

สังเกตการณ์สภาพอากาศและพยากรณ์อากาศของสนามบินมากกว่า 4000 แห่ง (รายงาน METAR และ TAF).

สถานีที่ดูได้จะแสดงไว้ด้วยจุดสีเหลืองและสีแดงบนแผนที่.

เลื่อนเมาส์ไปเหนือจุดเพื่อดูชื่อสถานี.

แล้วคลิกเพื่อดูสังเกตการณ์และการพยากรณ์สภาพอากาศ.

ในการเปลี่ยนแผนที่: คลิกที่ปุ่มสีเขียวที่มีกากบาทสีดำเพื่อซูมเข้า; ที่ปุ่มสีเขียวที่มีขีดเพื่อซูมออก; หรือที่ลูกศรสีเขียวเพื่อไปยังแผนที่ที่อยู่ติดกัน.


METAR-TAF: